Balaton, Minnesota
Current Conditions -  °F | °C
As of 2:33 AM on Thursday 27 Nov 2014 (Local Time) from KTKC Reporting Station
Clear Clear  
Wind Chill: -22°   Ceiling: Unl
Heat Index: -4°   Visibility: 10mi
Dew Point: -8°   Wind: 12mph
Humidity: 81%   Direction: 320°NW
Pressure: 30.49"   Gusts: NA
Location:  44.23°N, 95.87°W
Report Text: KTKC 270833Z AUTO 32010KT 10SM CLR M20/M22 A3049 RMK AO2 T11981223
Loading
Personal Weather Stations






























Interactive Weather Map New forecast layout! Learn more

10-Day Weather Forecast

Advertisements
Track Severe Weather on mobile